sensor_id;sensor_type;location;lat;lon;timestamp;pressure;altitude;pressure_sealevel;temperature;humidity
49645;BME280;36494;50.730;-1.932;2023-05-22T00:02:22;101570.82;;;12.76;100.00
49645;BME280;36494;50.730;-1.932;2023-05-22T00:04:47;101566.64;;;12.74;100.00
49645;BME280;36494;50.730;-1.932;2023-05-22T00:07:12;101563.09;;;12.72;100.00
49645;BME280;36494;50.730;-1.932;2023-05-22T00:09:38;101557.85;;;12.67;100.00
49645;BME280;36494;50.730;-1.932;2023-05-22T00:12:04;101556.71;;;12.63;100.00
49645;BME280;36494;50.730;-1.932;2023-05-22T00:14:28;101555.51;;;12.59;100.00
49645;BME280;36494;50.730;-1.932;2023-05-22T00:16:54;101555.96;;;12.57;100.00
49645;BME280;36494;50.730;-1.932;2023-05-22T00:19:19;101555.38;;;12.54;100.00
49645;BME280;36494;50.730;-1.932;2023-05-22T00:21:44;101554.82;;;12.49;100.00
49645;BME280;36494;50.730;-1.932;2023-05-22T00:24:10;101552.85;;;12.47;100.00
49645;BME280;36494;50.730;-1.932;2023-05-22T00:26:35;101552.84;;;12.44;100.00
49645;BME280;36494;50.730;-1.932;2023-05-22T00:29:00;101549.99;;;12.41;100.00
49645;BME280;36494;50.730;-1.932;2023-05-22T00:31:26;101548.35;;;12.39;100.00
49645;BME280;36494;50.730;-1.932;2023-05-22T00:33:51;101543.89;;;12.36;100.00
49645;BME280;36494;50.730;-1.932;2023-05-22T00:36:17;101540.89;;;12.35;100.00
49645;BME280;36494;50.730;-1.932;2023-05-22T00:38:42;101542.08;;;12.30;100.00
49645;BME280;36494;50.730;-1.932;2023-05-22T00:41:07;101540.49;;;12.27;100.00
49645;BME280;36494;50.730;-1.932;2023-05-22T00:43:33;101536.33;;;12.24;100.00
49645;BME280;36494;50.730;-1.932;2023-05-22T00:45:58;101537.86;;;12.20;100.00
49645;BME280;36494;50.730;-1.932;2023-05-22T00:48:24;101538.59;;;12.15;100.00
49645;BME280;36494;50.730;-1.932;2023-05-22T00:50:49;101536.42;;;12.14;100.00
49645;BME280;36494;50.730;-1.932;2023-05-22T00:53:15;101535.39;;;12.10;100.00
49645;BME280;36494;50.730;-1.932;2023-05-22T00:55:39;101531.78;;;12.10;100.00
49645;BME280;36494;50.730;-1.932;2023-05-22T00:58:05;101533.37;;;12.06;100.00
49645;BME280;36494;50.730;-1.932;2023-05-22T01:00:30;101532.50;;;12.06;100.00
49645;BME280;36494;50.730;-1.932;2023-05-22T01:02:56;101531.61;;;12.03;100.00
49645;BME280;36494;50.730;-1.932;2023-05-22T01:05:21;101528.28;;;12.00;100.00
49645;BME280;36494;50.730;-1.932;2023-05-22T01:07:46;101530.95;;;11.99;100.00
49645;BME280;36494;50.730;-1.932;2023-05-22T01:10:12;101526.75;;;11.98;100.00
49645;BME280;36494;50.730;-1.932;2023-05-22T01:12:46;101527.42;;;11.96;100.00
49645;BME280;36494;50.730;-1.932;2023-05-22T01:15:07;101528.19;;;11.93;100.00
49645;BME280;36494;50.730;-1.932;2023-05-22T01:17:35;101530.37;;;11.92;100.00
49645;BME280;36494;50.730;-1.932;2023-05-22T01:20:01;101531.28;;;11.89;100.00
49645;BME280;36494;50.730;-1.932;2023-05-22T01:22:33;101533.02;;;11.87;100.00
49645;BME280;36494;50.730;-1.932;2023-05-22T01:24:59;101532.48;;;11.82;100.00
49645;BME280;36494;50.730;-1.932;2023-05-22T01:27:19;101529.75;;;11.80;100.00
49645;BME280;36494;50.730;-1.932;2023-05-22T01:29:42;101530.19;;;11.77;100.00
49645;BME280;36494;50.730;-1.932;2023-05-22T01:32:01;101527.99;;;11.73;100.00
49645;BME280;36494;50.730;-1.932;2023-05-22T01:34:26;101524.89;;;11.71;100.00
49645;BME280;36494;50.730;-1.932;2023-05-22T01:36:52;101526.07;;;11.69;100.00
49645;BME280;36494;50.730;-1.932;2023-05-22T01:39:18;101522.05;;;11.66;100.00
49645;BME280;36494;50.730;-1.932;2023-05-22T01:41:42;101522.48;;;11.64;100.00
49645;BME280;36494;50.730;-1.932;2023-05-22T01:44:07;101521.65;;;11.62;100.00
49645;BME280;36494;50.730;-1.932;2023-05-22T01:46:33;101522.97;;;11.60;100.00
49645;BME280;36494;50.730;-1.932;2023-05-22T01:48:58;101520.41;;;11.56;100.00
49645;BME280;36494;50.730;-1.932;2023-05-22T01:51:32;101518.61;;;11.54;100.00
49645;BME280;36494;50.730;-1.932;2023-05-22T01:53:56;101518.08;;;11.50;100.00
49645;BME280;36494;50.730;-1.932;2023-05-22T01:56:19;101516.17;;;11.48;100.00
49645;BME280;36494;50.730;-1.932;2023-05-22T01:58:46;101511.69;;;11.46;100.00
49645;BME280;36494;50.730;-1.932;2023-05-22T02:01:07;101508.16;;;11.43;100.00
49645;BME280;36494;50.730;-1.932;2023-05-22T02:03:32;101508.14;;;11.40;100.00
49645;BME280;36494;50.730;-1.932;2023-05-22T02:05:58;101509.33;;;11.39;100.00
49645;BME280;36494;50.730;-1.932;2023-05-22T02:08:21;101508.03;;;11.37;100.00
49645;BME280;36494;50.730;-1.932;2023-05-22T02:10:48;101509.01;;;11.35;100.00
49645;BME280;36494;50.730;-1.932;2023-05-22T02:13:12;101509.01;;;11.33;100.00
49645;BME280;36494;50.730;-1.932;2023-05-22T02:15:37;101504.73;;;11.31;100.00
49645;BME280;36494;50.730;-1.932;2023-05-22T02:18:08;101504.20;;;11.30;100.00
49645;BME280;36494;50.730;-1.932;2023-05-22T02:20:29;101506.06;;;11.29;100.00
49645;BME280;36494;50.730;-1.932;2023-05-22T02:22:54;101506.88;;;11.28;100.00
49645;BME280;36494;50.730;-1.932;2023-05-22T02:25:20;101504.50;;;11.26;100.00
49645;BME280;36494;50.730;-1.932;2023-05-22T02:27:47;101508.95;;;11.25;100.00
49645;BME280;36494;50.730;-1.932;2023-05-22T02:30:11;101511.57;;;11.22;100.00
49645;BME280;36494;50.730;-1.932;2023-05-22T02:32:36;101509.80;;;11.20;100.00
49645;BME280;36494;50.730;-1.932;2023-05-22T02:35:01;101506.42;;;11.18;100.00
49645;BME280;36494;50.730;-1.932;2023-05-22T02:37:26;101504.55;;;11.16;100.00
49645;BME280;36494;50.730;-1.932;2023-05-22T02:39:51;101501.91;;;11.14;100.00
49645;BME280;36494;50.730;-1.932;2023-05-22T02:42:17;101503.35;;;11.12;100.00
49645;BME280;36494;50.730;-1.932;2023-05-22T02:44:43;101504.39;;;11.11;100.00
49645;BME280;36494;50.730;-1.932;2023-05-22T02:47:08;101506.86;;;11.09;100.00
49645;BME280;36494;50.730;-1.932;2023-05-22T02:49:34;101506.15;;;11.09;100.00
49645;BME280;36494;50.730;-1.932;2023-05-22T02:51:59;101505.96;;;11.08;100.00
49645;BME280;36494;50.730;-1.932;2023-05-22T02:54:24;101503.66;;;11.05;100.00
49645;BME280;36494;50.730;-1.932;2023-05-22T02:56:49;101501.50;;;11.01;100.00
49645;BME280;36494;50.730;-1.932;2023-05-22T02:59:15;101498.73;;;11.00;100.00
49645;BME280;36494;50.730;-1.932;2023-05-22T03:01:40;101495.71;;;10.99;100.00
49645;BME280;36494;50.730;-1.932;2023-05-22T03:04:06;101494.41;;;10.97;100.00
49645;BME280;36494;50.730;-1.932;2023-05-22T03:06:31;101493.19;;;10.93;100.00
49645;BME280;36494;50.730;-1.932;2023-05-22T03:08:56;101492.32;;;10.92;100.00
49645;BME280;36494;50.730;-1.932;2023-05-22T03:11:22;101489.90;;;10.88;100.00
49645;BME280;36494;50.730;-1.932;2023-05-22T03:13:47;101488.77;;;10.86;100.00
49645;BME280;36494;50.730;-1.932;2023-05-22T03:16:12;101488.54;;;10.83;100.00
49645;BME280;36494;50.730;-1.932;2023-05-22T03:18:38;101487.56;;;10.81;100.00
49645;BME280;36494;50.730;-1.932;2023-05-22T03:21:04;101482.74;;;10.77;100.00
49645;BME280;36494;50.730;-1.932;2023-05-22T03:23:29;101482.03;;;10.74;100.00
49645;BME280;36494;50.730;-1.932;2023-05-22T03:25:54;101482.91;;;10.70;100.00
49645;BME280;36494;50.730;-1.932;2023-05-22T03:28:20;101479.15;;;10.67;100.00
49645;BME280;36494;50.730;-1.932;2023-05-22T03:30:45;101479.57;;;10.64;100.00
49645;BME280;36494;50.730;-1.932;2023-05-22T03:33:11;101478.70;;;10.62;100.00
49645;BME280;36494;50.730;-1.932;2023-05-22T03:35:36;101477.03;;;10.60;100.00
49645;BME280;36494;50.730;-1.932;2023-05-22T03:38:01;101476.65;;;10.56;100.00
49645;BME280;36494;50.730;-1.932;2023-05-22T03:40:26;101477.15;;;10.56;100.00
49645;BME280;36494;50.730;-1.932;2023-05-22T03:42:52;101475.73;;;10.54;100.00
49645;BME280;36494;50.730;-1.932;2023-05-22T03:45:17;101477.89;;;10.51;100.00
49645;BME280;36494;50.730;-1.932;2023-05-22T03:47:42;101475.93;;;10.49;100.00
49645;BME280;36494;50.730;-1.932;2023-05-22T03:50:08;101472.59;;;10.42;100.00
49645;BME280;36494;50.730;-1.932;2023-05-22T03:52:32;101475.43;;;10.39;100.00
49645;BME280;36494;50.730;-1.932;2023-05-22T03:54:58;101470.37;;;10.39;100.00
49645;BME280;36494;50.730;-1.932;2023-05-22T03:57:23;101468.41;;;10.36;100.00
49645;BME280;36494;50.730;-1.932;2023-05-22T03:59:49;101465.74;;;10.33;100.00
49645;BME280;36494;50.730;-1.932;2023-05-22T04:02:14;101469.33;;;10.28;100.00
49645;BME280;36494;50.730;-1.932;2023-05-22T04:04:39;101469.70;;;10.28;100.00
49645;BME280;36494;50.730;-1.932;2023-05-22T04:07:05;101468.08;;;10.27;100.00
49645;BME280;36494;50.730;-1.932;2023-05-22T04:09:30;101466.89;;;10.27;100.00
49645;BME280;36494;50.730;-1.932;2023-05-22T04:11:55;101461.81;;;10.20;100.00
49645;BME280;36494;50.730;-1.932;2023-05-22T04:14:21;101465.87;;;10.22;100.00
49645;BME280;36494;50.730;-1.932;2023-05-22T04:16:46;101466.15;;;10.22;100.00
49645;BME280;36494;50.730;-1.932;2023-05-22T04:19:11;101466.75;;;10.24;100.00
49645;BME280;36494;50.730;-1.932;2023-05-22T04:21:36;101461.89;;;10.21;100.00
49645;BME280;36494;50.730;-1.932;2023-05-22T04:24:02;101459.55;;;10.08;100.00
49645;BME280;36494;50.730;-1.932;2023-05-22T04:26:27;101461.21;;;10.07;100.00
49645;BME280;36494;50.730;-1.932;2023-05-22T04:28:52;101460.12;;;10.08;100.00
49645;BME280;36494;50.730;-1.932;2023-05-22T04:31:18;101458.78;;;10.09;100.00
49645;BME280;36494;50.730;-1.932;2023-05-22T04:33:43;101454.17;;;10.06;100.00
49645;BME280;36494;50.730;-1.932;2023-05-22T04:36:09;101455.14;;;10.05;100.00
49645;BME280;36494;50.730;-1.932;2023-05-22T04:38:35;101455.42;;;10.05;100.00
49645;BME280;36494;50.730;-1.932;2023-05-22T04:41:00;101458.64;;;10.04;100.00
49645;BME280;36494;50.730;-1.932;2023-05-22T04:43:25;101461.99;;;10.03;100.00
49645;BME280;36494;50.730;-1.932;2023-05-22T04:45:51;101462.39;;;10.08;100.00
49645;BME280;36494;50.730;-1.932;2023-05-22T04:48:16;101461.44;;;10.07;100.00
49645;BME280;36494;50.730;-1.932;2023-05-22T04:50:41;101463.37;;;10.10;100.00
49645;BME280;36494;50.730;-1.932;2023-05-22T04:53:06;101463.81;;;10.11;100.00
49645;BME280;36494;50.730;-1.932;2023-05-22T04:55:32;101464.22;;;10.10;100.00
49645;BME280;36494;50.730;-1.932;2023-05-22T04:57:57;101468.80;;;10.16;100.00
49645;BME280;36494;50.730;-1.932;2023-05-22T05:00:23;101471.00;;;10.16;100.00
49645;BME280;36494;50.730;-1.932;2023-05-22T05:02:48;101469.02;;;10.19;100.00
49645;BME280;36494;50.730;-1.932;2023-05-22T05:05:13;101463.96;;;10.25;100.00
49645;BME280;36494;50.730;-1.932;2023-05-22T05:07:38;101461.10;;;10.27;100.00
49645;BME280;36494;50.730;-1.932;2023-05-22T05:10:05;101467.79;;;10.28;100.00
49645;BME280;36494;50.730;-1.932;2023-05-22T05:12:29;101472.41;;;10.31;100.00
49645;BME280;36494;50.730;-1.932;2023-05-22T05:14:55;101475.60;;;10.35;100.00
49645;BME280;36494;50.730;-1.932;2023-05-22T05:17:20;101478.25;;;10.38;100.00
49645;BME280;36494;50.730;-1.932;2023-05-22T05:19:46;101482.17;;;10.43;100.00
49645;BME280;36494;50.730;-1.932;2023-05-22T05:22:11;101486.24;;;10.46;100.00
49645;BME280;36494;50.730;-1.932;2023-05-22T05:24:37;101491.79;;;10.51;100.00
49645;BME280;36494;50.730;-1.932;2023-05-22T05:27:02;101494.05;;;10.54;100.00
49645;BME280;36494;50.730;-1.932;2023-05-22T05:29:27;101493.64;;;10.58;100.00
49645;BME280;36494;50.730;-1.932;2023-05-22T05:31:53;101497.57;;;10.63;100.00
49645;BME280;36494;50.730;-1.932;2023-05-22T05:34:18;101501.86;;;10.63;100.00
49645;BME280;36494;50.730;-1.932;2023-05-22T05:36:43;101501.45;;;10.70;100.00
49645;BME280;36494;50.730;-1.932;2023-05-22T05:39:09;101507.14;;;10.71;100.00
49645;BME280;36494;50.730;-1.932;2023-05-22T05:41:34;101506.96;;;10.76;100.00
49645;BME280;36494;50.730;-1.932;2023-05-22T05:43:59;101508.45;;;10.81;100.00
49645;BME280;36494;50.730;-1.932;2023-05-22T05:46:25;101510.40;;;10.85;100.00
49645;BME280;36494;50.730;-1.932;2023-05-22T05:48:51;101507.65;;;10.89;100.00
49645;BME280;36494;50.730;-1.932;2023-05-22T05:51:15;101506.06;;;10.92;100.00
49645;BME280;36494;50.730;-1.932;2023-05-22T05:53:41;101503.32;;;10.97;100.00
49645;BME280;36494;50.730;-1.932;2023-05-22T05:56:07;101502.05;;;10.99;100.00
49645;BME280;36494;50.730;-1.932;2023-05-22T05:58:32;101502.19;;;11.02;100.00
49645;BME280;36494;50.730;-1.932;2023-05-22T06:00:57;101503.93;;;11.05;100.00
49645;BME280;36494;50.730;-1.932;2023-05-22T06:03:22;101504.22;;;11.10;100.00
49645;BME280;36494;50.730;-1.932;2023-05-22T06:05:48;101502.79;;;11.12;100.00
49645;BME280;36494;50.730;-1.932;2023-05-22T06:08:13;101501.39;;;11.17;100.00
49645;BME280;36494;50.730;-1.932;2023-05-22T06:10:38;101496.51;;;11.22;100.00
49645;BME280;36494;50.730;-1.932;2023-05-22T06:13:04;101495.11;;;11.26;100.00
49645;BME280;36494;50.730;-1.932;2023-05-22T06:15:29;101491.52;;;11.30;100.00
49645;BME280;36494;50.730;-1.932;2023-05-22T06:17:54;101491.49;;;11.35;100.00
49645;BME280;36494;50.730;-1.932;2023-05-22T06:20:20;101491.64;;;11.38;100.00
49645;BME280;36494;50.730;-1.932;2023-05-22T06:22:45;101494.73;;;11.42;100.00
49645;BME280;36494;50.730;-1.932;2023-05-22T06:25:11;101498.67;;;11.50;100.00
49645;BME280;36494;50.730;-1.932;2023-05-22T06:27:36;101497.85;;;11.56;100.00
49645;BME280;36494;50.730;-1.932;2023-05-22T06:30:01;101497.41;;;11.61;100.00
49645;BME280;36494;50.730;-1.932;2023-05-22T06:32:26;101494.01;;;11.65;100.00
49645;BME280;36494;50.730;-1.932;2023-05-22T06:34:52;101496.38;;;11.71;100.00
49645;BME280;36494;50.730;-1.932;2023-05-22T06:37:18;101497.98;;;11.77;100.00
49645;BME280;36494;50.730;-1.932;2023-05-22T06:39:43;101498.85;;;11.84;100.00
49645;BME280;36494;50.730;-1.932;2023-05-22T06:42:09;101506.18;;;11.90;100.00
49645;BME280;36494;50.730;-1.932;2023-05-22T06:44:34;101513.18;;;11.96;100.00
49645;BME280;36494;50.730;-1.932;2023-05-22T06:46:59;101520.08;;;12.03;100.00
49645;BME280;36494;50.730;-1.932;2023-05-22T06:49:24;101528.16;;;12.09;100.00
49645;BME280;36494;50.730;-1.932;2023-05-22T06:51:50;101534.64;;;12.12;100.00
49645;BME280;36494;50.730;-1.932;2023-05-22T06:54:15;101538.34;;;12.20;100.00
49645;BME280;36494;50.730;-1.932;2023-05-22T06:56:41;101539.76;;;12.23;100.00
49645;BME280;36494;50.730;-1.932;2023-05-22T06:59:06;101544.79;;;12.30;100.00
49645;BME280;36494;50.730;-1.932;2023-05-22T07:01:31;101550.52;;;12.34;100.00
49645;BME280;36494;50.730;-1.932;2023-05-22T07:03:57;101553.61;;;12.37;100.00
49645;BME280;36494;50.730;-1.932;2023-05-22T07:06:22;101552.72;;;12.41;100.00
49645;BME280;36494;50.730;-1.932;2023-05-22T07:08:47;101557.12;;;12.48;100.00
49645;BME280;36494;50.730;-1.932;2023-05-22T07:11:12;101556.76;;;12.55;100.00
49645;BME280;36494;50.730;-1.932;2023-05-22T07:13:38;101556.03;;;12.62;100.00
49645;BME280;36494;50.730;-1.932;2023-05-22T07:16:03;101563.35;;;12.69;100.00
49645;BME280;36494;50.730;-1.932;2023-05-22T07:18:28;101562.90;;;12.73;100.00
49645;BME280;36494;50.730;-1.932;2023-05-22T07:20:54;101558.87;;;12.80;100.00
49645;BME280;36494;50.730;-1.932;2023-05-22T07:23:19;101559.38;;;12.85;100.00
49645;BME280;36494;50.730;-1.932;2023-05-22T07:25:44;101561.39;;;12.91;100.00
49645;BME280;36494;50.730;-1.932;2023-05-22T07:28:10;101566.11;;;12.96;100.00
49645;BME280;36494;50.730;-1.932;2023-05-22T07:30:36;101571.44;;;13.05;100.00
49645;BME280;36494;50.730;-1.932;2023-05-22T07:33:01;101571.56;;;13.14;100.00
49645;BME280;36494;50.730;-1.932;2023-05-22T07:35:26;101570.64;;;13.20;100.00
49645;BME280;36494;50.730;-1.932;2023-05-22T07:37:51;101573.49;;;13.27;100.00
49645;BME280;36494;50.730;-1.932;2023-05-22T07:40:16;101573.43;;;13.38;100.00
49645;BME280;36494;50.730;-1.932;2023-05-22T07:42:41;101575.83;;;13.47;100.00
49645;BME280;36494;50.730;-1.932;2023-05-22T07:45:08;101577.80;;;13.53;100.00
49645;BME280;36494;50.730;-1.932;2023-05-22T07:47:32;101584.35;;;13.62;100.00
49645;BME280;36494;50.730;-1.932;2023-05-22T07:49:57;101579.58;;;13.70;100.00
49645;BME280;36494;50.730;-1.932;2023-05-22T07:52:23;101581.06;;;13.76;100.00
49645;BME280;36494;50.730;-1.932;2023-05-22T07:54:48;101579.53;;;13.84;100.00
49645;BME280;36494;50.730;-1.932;2023-05-22T07:57:14;101580.87;;;13.90;100.00
49645;BME280;36494;50.730;-1.932;2023-05-22T07:59:39;101583.11;;;13.98;100.00
49645;BME280;36494;50.730;-1.932;2023-05-22T08:02:05;101584.45;;;14.03;100.00
49645;BME280;36494;50.730;-1.932;2023-05-22T08:04:30;101586.09;;;14.16;100.00
49645;BME280;36494;50.730;-1.932;2023-05-22T08:06:55;101583.64;;;14.26;100.00
49645;BME280;36494;50.730;-1.932;2023-05-22T08:09:21;101589.11;;;14.23;100.00
49645;BME280;36494;50.730;-1.932;2023-05-22T08:11:46;101594.19;;;14.34;100.00
49645;BME280;36494;50.730;-1.932;2023-05-22T08:14:12;101595.94;;;14.44;100.00
49645;BME280;36494;50.730;-1.932;2023-05-22T08:16:37;101594.78;;;14.54;100.00
49645;BME280;36494;50.730;-1.932;2023-05-22T08:19:03;101597.45;;;14.64;100.00
49645;BME280;36494;50.730;-1.932;2023-05-22T08:21:28;101596.53;;;14.70;100.00
49645;BME280;36494;50.730;-1.932;2023-05-22T08:23:53;101596.23;;;14.75;100.00
49645;BME280;36494;50.730;-1.932;2023-05-22T08:26:19;101591.85;;;14.81;100.00
49645;BME280;36494;50.730;-1.932;2023-05-22T08:28:44;101592.49;;;14.90;100.00
49645;BME280;36494;50.730;-1.932;2023-05-22T08:31:10;101597.04;;;14.98;100.00
49645;BME280;36494;50.730;-1.932;2023-05-22T08:33:35;101594.34;;;15.01;100.00
49645;BME280;36494;50.730;-1.932;2023-05-22T08:36:01;101596.30;;;15.06;100.00
49645;BME280;36494;50.730;-1.932;2023-05-22T08:38:26;101594.17;;;15.18;100.00
49645;BME280;36494;50.730;-1.932;2023-05-22T08:40:53;101593.74;;;15.29;100.00
49645;BME280;36494;50.730;-1.932;2023-05-22T08:43:18;101593.40;;;15.38;100.00
49645;BME280;36494;50.730;-1.932;2023-05-22T08:45:42;101594.30;;;15.51;100.00
49645;BME280;36494;50.730;-1.932;2023-05-22T08:48:11;101593.44;;;15.59;100.00
49645;BME280;36494;50.730;-1.932;2023-05-22T08:50:33;101591.71;;;15.56;100.00
49645;BME280;36494;50.730;-1.932;2023-05-22T08:52:59;101591.55;;;15.57;100.00
49645;BME280;36494;50.730;-1.932;2023-05-22T08:55:24;101587.30;;;15.66;100.00
49645;BME280;36494;50.730;-1.932;2023-05-22T08:57:49;101592.08;;;15.76;100.00
49645;BME280;36494;50.730;-1.932;2023-05-22T09:00:15;101589.54;;;15.80;100.00
49645;BME280;36494;50.730;-1.932;2023-05-22T09:02:39;101589.86;;;15.84;100.00
49645;BME280;36494;50.730;-1.932;2023-05-22T09:05:06;101583.77;;;15.86;100.00
49645;BME280;36494;50.730;-1.932;2023-05-22T09:07:30;101589.06;;;15.97;100.00
49645;BME280;36494;50.730;-1.932;2023-05-22T09:09:55;101591.85;;;16.00;100.00
49645;BME280;36494;50.730;-1.932;2023-05-22T09:12:20;101588.06;;;16.10;100.00
49645;BME280;36494;50.730;-1.932;2023-05-22T09:14:46;101591.38;;;16.24;100.00
49645;BME280;36494;50.730;-1.932;2023-05-22T09:17:14;101592.27;;;16.39;100.00
49645;BME280;36494;50.730;-1.932;2023-05-22T09:19:37;101586.96;;;16.44;100.00
49645;BME280;36494;50.730;-1.932;2023-05-22T09:22:03;101591.13;;;16.55;100.00
49645;BME280;36494;50.730;-1.932;2023-05-22T09:24:27;101593.33;;;16.59;100.00
49645;BME280;36494;50.730;-1.932;2023-05-22T09:26:53;101593.03;;;16.59;100.00
49645;BME280;36494;50.730;-1.932;2023-05-22T09:29:19;101590.63;;;16.64;100.00
49645;BME280;36494;50.730;-1.932;2023-05-22T09:31:44;101590.24;;;16.65;100.00
49645;BME280;36494;50.730;-1.932;2023-05-22T09:34:09;101585.19;;;16.76;100.00
49645;BME280;36494;50.730;-1.932;2023-05-22T09:36:35;101585.06;;;16.90;100.00
49645;BME280;36494;50.730;-1.932;2023-05-22T09:39:02;101574.60;;;17.09;100.00
49645;BME280;36494;50.730;-1.932;2023-05-22T09:41:27;101581.24;;;17.39;100.00
49645;BME280;36494;50.730;-1.932;2023-05-22T09:43:52;101571.68;;;17.64;100.00
49645;BME280;36494;50.730;-1.932;2023-05-22T09:46:17;101578.19;;;17.84;100.00
49645;BME280;36494;50.730;-1.932;2023-05-22T09:48:43;101579.31;;;17.97;100.00
49645;BME280;36494;50.730;-1.932;2023-05-22T09:51:09;101578.98;;;18.10;100.00
49645;BME280;36494;50.730;-1.932;2023-05-22T09:53:34;101580.61;;;18.18;100.00
49645;BME280;36494;50.730;-1.932;2023-05-22T09:55:59;101579.19;;;18.36;100.00
49645;BME280;36494;50.730;-1.932;2023-05-22T09:58:26;101578.40;;;18.53;100.00
49645;BME280;36494;50.730;-1.932;2023-05-22T10:00:49;101580.32;;;18.73;100.00
49645;BME280;36494;50.730;-1.932;2023-05-22T10:03:15;101576.18;;;18.93;100.00
49645;BME280;36494;50.730;-1.932;2023-05-22T10:05:44;101579.54;;;19.09;100.00
49645;BME280;36494;50.730;-1.932;2023-05-22T10:08:09;101581.62;;;19.22;100.00
49645;BME280;36494;50.730;-1.932;2023-05-22T10:10:31;101576.81;;;19.35;100.00
49645;BME280;36494;50.730;-1.932;2023-05-22T10:12:59;101581.27;;;19.67;100.00
49645;BME280;36494;50.730;-1.932;2023-05-22T10:15:21;101580.99;;;19.70;100.00
49645;BME280;36494;50.730;-1.932;2023-05-22T10:17:47;101574.83;;;19.54;96.08
49645;BME280;36494;50.730;-1.932;2023-05-22T10:20:11;101578.66;;;19.53;98.03
49645;BME280;36494;50.730;-1.932;2023-05-22T10:22:37;101582.94;;;19.50;97.19
49645;BME280;36494;50.730;-1.932;2023-05-22T10:25:03;101587.47;;;19.47;99.07
49645;BME280;36494;50.730;-1.932;2023-05-22T10:27:27;101592.36;;;19.37;100.00
49645;BME280;36494;50.730;-1.932;2023-05-22T10:30:00;101591.41;;;19.10;99.56
49645;BME280;36494;50.730;-1.932;2023-05-22T10:32:23;101595.00;;;19.11;100.00
49645;BME280;36494;50.730;-1.932;2023-05-22T10:34:50;101601.46;;;18.98;100.00
49645;BME280;36494;50.730;-1.932;2023-05-22T10:37:20;101604.66;;;18.83;100.00
49645;BME280;36494;50.730;-1.932;2023-05-22T10:39:41;101602.17;;;18.66;100.00
49645;BME280;36494;50.730;-1.932;2023-05-22T10:41:59;101601.72;;;18.51;100.00
49645;BME280;36494;50.730;-1.932;2023-05-22T10:44:24;101601.01;;;18.52;100.00
49645;BME280;36494;50.730;-1.932;2023-05-22T10:46:50;101603.27;;;18.43;100.00
49645;BME280;36494;50.730;-1.932;2023-05-22T10:49:19;101598.24;;;18.56;100.00
49645;BME280;36494;50.730;-1.932;2023-05-22T10:51:40;101596.00;;;18.61;100.00
49645;BME280;36494;50.730;-1.932;2023-05-22T10:54:06;101589.03;;;18.66;100.00
49645;BME280;36494;50.730;-1.932;2023-05-22T10:56:33;101586.46;;;18.73;100.00
49645;BME280;36494;50.730;-1.932;2023-05-22T10:58:57;101584.87;;;18.82;100.00
49645;BME280;36494;50.730;-1.932;2023-05-22T11:01:24;101582.40;;;18.90;100.00
49645;BME280;36494;50.730;-1.932;2023-05-22T11:03:54;101579.17;;;19.04;100.00
49645;BME280;36494;50.730;-1.932;2023-05-22T11:06:30;101573.83;;;19.18;100.00
49645;BME280;36494;50.730;-1.932;2023-05-22T11:08:38;101568.12;;;19.48;100.00
49645;BME280;36494;50.730;-1.932;2023-05-22T11:11:11;101568.32;;;19.67;100.00
49645;BME280;36494;50.730;-1.932;2023-05-22T11:13:28;101569.12;;;19.93;100.00
49645;BME280;36494;50.730;-1.932;2023-05-22T11:15:54;101562.50;;;20.17;100.00
49645;BME280;36494;50.730;-1.932;2023-05-22T11:18:19;101569.20;;;20.37;95.26
49645;BME280;36494;50.730;-1.932;2023-05-22T11:20:45;101564.36;;;20.56;92.49
49645;BME280;36494;50.730;-1.932;2023-05-22T11:23:10;101561.36;;;20.85;93.95
49645;BME280;36494;50.730;-1.932;2023-05-22T11:25:36;101556.58;;;20.90;88.60
49645;BME280;36494;50.730;-1.932;2023-05-22T11:28:02;101560.10;;;21.02;90.91
49645;BME280;36494;50.730;-1.932;2023-05-22T11:30:26;101564.11;;;21.07;94.11
49645;BME280;36494;50.730;-1.932;2023-05-22T11:32:51;101557.89;;;21.08;92.94
49645;BME280;36494;50.730;-1.932;2023-05-22T11:35:18;101566.82;;;21.11;94.29
49645;BME280;36494;50.730;-1.932;2023-05-22T11:37:41;101561.96;;;21.26;93.45
49645;BME280;36494;50.730;-1.932;2023-05-22T11:40:07;101559.77;;;21.54;88.96
49645;BME280;36494;50.730;-1.932;2023-05-22T11:42:32;101566.47;;;21.83;92.46
49645;BME280;36494;50.730;-1.932;2023-05-22T11:44:57;101562.86;;;22.00;90.60
49645;BME280;36494;50.730;-1.932;2023-05-22T11:47:23;101559.57;;;22.07;90.09
49645;BME280;36494;50.730;-1.932;2023-05-22T11:49:47;101559.99;;;22.31;93.52
49645;BME280;36494;50.730;-1.932;2023-05-22T11:52:15;101558.61;;;22.12;86.73
49645;BME280;36494;50.730;-1.932;2023-05-22T11:54:38;101563.68;;;22.36;90.38
49645;BME280;36494;50.730;-1.932;2023-05-22T11:57:04;101561.05;;;22.36;87.67
49645;BME280;36494;50.730;-1.932;2023-05-22T11:59:28;101554.12;;;22.56;86.05
49645;BME280;36494;50.730;-1.932;2023-05-22T12:01:54;101553.89;;;22.57;83.35
49645;BME280;36494;50.730;-1.932;2023-05-22T12:04:19;101554.04;;;22.70;81.30
49645;BME280;36494;50.730;-1.932;2023-05-22T12:06:44;101556.06;;;22.76;79.34
49645;BME280;36494;50.730;-1.932;2023-05-22T12:09:09;101553.05;;;22.55;76.09
49645;BME280;36494;50.730;-1.932;2023-05-22T12:11:35;101557.12;;;22.47;78.12
49645;BME280;36494;50.730;-1.932;2023-05-22T12:14:01;101552.02;;;22.66;77.28
49645;BME280;36494;50.730;-1.932;2023-05-22T12:16:26;101544.32;;;22.92;76.50
49645;BME280;36494;50.730;-1.932;2023-05-22T12:18:51;101544.67;;;23.06;78.58
49645;BME280;36494;50.730;-1.932;2023-05-22T12:21:18;101543.98;;;23.06;75.76